createdAt,value
2018-09-30T00:00:12.204Z,101875.68
2018-09-30T00:02:39.185Z,101874.80
2018-09-30T00:05:06.150Z,101878.30
2018-09-30T00:07:33.094Z,101876.73
2018-09-30T00:10:00.037Z,101882.46
2018-09-30T00:12:27.008Z,101875.55
2018-09-30T00:14:53.971Z,101870.18
2018-09-30T00:17:20.930Z,101873.16
2018-09-30T00:19:47.875Z,101868.06
2018-09-30T00:22:14.843Z,101869.70
2018-09-30T00:24:47.507Z,101865.02
2018-09-30T00:27:17.463Z,101861.93
2018-09-30T00:29:44.410Z,101864.33
2018-09-30T00:32:11.365Z,101858.06
2018-09-30T00:34:38.324Z,101857.36
2018-09-30T00:37:05.328Z,101854.16
2018-09-30T00:39:32.269Z,101845.43
2018-09-30T00:41:59.248Z,101849.65
2018-09-30T00:44:26.192Z,101850.34
2018-09-30T00:46:53.597Z,101844.75
2018-09-30T00:49:20.559Z,101849.11
2018-09-30T00:51:47.514Z,101844.73
2018-09-30T00:54:14.837Z,101840.64
2018-09-30T00:56:42.109Z,101843.50
2018-09-30T00:59:09.462Z,101833.74
2018-09-30T01:01:36.409Z,101829.17
2018-09-30T01:04:03.424Z,101832.16
2018-09-30T01:06:30.384Z,101831.45
2018-09-30T01:08:57.350Z,101826.89
2018-09-30T01:11:24.323Z,101827.72
2018-09-30T01:13:51.297Z,101822.50
2018-09-30T01:16:18.485Z,101818.12
2018-09-30T01:18:45.445Z,101816.44
2018-09-30T01:21:12.397Z,101764.23
2018-09-30T01:23:39.353Z,101810.06
2018-09-30T01:26:06.301Z,101804.19
2018-09-30T01:28:33.525Z,101810.25
2018-09-30T01:31:01.307Z,101807.09
2018-09-30T01:33:28.613Z,101801.55
2018-09-30T01:38:29.298Z,101799.86
2018-09-30T01:40:56.337Z,101789.81
2018-09-30T01:43:23.304Z,101787.13
2018-09-30T01:45:50.257Z,101782.59
2018-09-30T01:48:17.271Z,101781.59
2018-09-30T01:50:44.261Z,101776.44
2018-09-30T01:53:11.226Z,101779.13
2018-09-30T01:55:38.184Z,101776.91
2018-09-30T01:58:05.178Z,101771.06
2018-09-30T02:00:32.130Z,101774.77
2018-09-30T02:02:59.073Z,101766.70
2018-09-30T02:05:26.014Z,101762.03
2018-09-30T02:07:52.974Z,101748.64
2018-09-30T02:10:19.935Z,101748.99
2018-09-30T02:12:46.889Z,101751.16
2018-09-30T02:15:13.842Z,101747.64
2018-09-30T02:17:40.833Z,101746.95
2018-09-30T02:20:07.812Z,101743.92
2018-09-30T02:22:34.761Z,101736.72
2018-09-30T02:25:01.714Z,101736.55
2018-09-30T02:27:28.666Z,101732.70
2018-09-30T02:29:55.628Z,101736.25
2018-09-30T02:32:23.065Z,101730.71
2018-09-30T02:34:50.138Z,101724.52
2018-09-30T02:37:17.042Z,101726.56
2018-09-30T02:39:44.061Z,101720.54
2018-09-30T02:42:11.669Z,101710.13
2018-09-30T02:44:38.638Z,101709.97
2018-09-30T02:47:05.646Z,101705.45
2018-09-30T02:49:32.629Z,101708.84
2018-09-30T02:51:59.604Z,101697.22
2018-09-30T02:54:26.564Z,101689.33
2018-09-30T02:56:53.497Z,101691.02
2018-09-30T02:59:20.563Z,101691.50
2018-09-30T03:01:47.525Z,101693.70
2018-09-30T03:04:14.505Z,101692.02
2018-09-30T03:06:47.293Z,101682.61
2018-09-30T03:09:16.717Z,101679.88
2018-09-30T03:11:43.681Z,101680.18
2018-09-30T03:14:11.912Z,101675.11
2018-09-30T03:16:39.154Z,101676.45
2018-09-30T03:19:06.150Z,101668.73
2018-09-30T03:21:33.117Z,101671.08
2018-09-30T03:24:00.061Z,101666.39
2018-09-30T03:29:00.793Z,101657.64
2018-09-30T03:31:27.752Z,101659.68
2018-09-30T03:33:54.742Z,101656.34
2018-09-30T03:36:21.709Z,101649.14
2018-09-30T03:38:48.678Z,101648.62
2018-09-30T03:41:15.651Z,101649.63
2018-09-30T03:43:42.626Z,101638.39
2018-09-30T03:46:09.615Z,101630.98
2018-09-30T03:48:36.580Z,101625.27
2018-09-30T03:51:03.589Z,101620.02
2018-09-30T03:53:30.575Z,101618.02
2018-09-30T03:55:57.662Z,101616.16
2018-09-30T03:58:24.642Z,101611.44
2018-09-30T04:00:51.646Z,101610.75
2018-09-30T04:03:18.842Z,101610.92
2018-09-30T04:05:45.989Z,101599.34
2018-09-30T04:08:12.950Z,101597.13
2018-09-30T04:10:39.932Z,101593.75
2018-09-30T04:13:06.906Z,101598.13
2018-09-30T04:15:33.910Z,101592.11
2018-09-30T04:18:00.866Z,101594.14
2018-09-30T04:20:27.864Z,101593.63
2018-09-30T04:22:54.850Z,101598.52
2018-09-30T04:25:21.876Z,101592.98
2018-09-30T04:27:48.869Z,101589.29
2018-09-30T04:30:15.860Z,101593.50
2018-09-30T04:32:42.872Z,101588.98
2018-09-30T04:35:09.861Z,101587.67
2018-09-30T04:37:36.840Z,101586.00
2018-09-30T04:40:03.808Z,101585.86
2018-09-30T04:42:30.761Z,101585.52
2018-09-30T04:44:57.726Z,101583.17
2018-09-30T04:47:24.660Z,101575.97
2018-09-30T04:49:51.680Z,101570.77
2018-09-30T04:52:18.585Z,101568.94
2018-09-30T04:54:45.548Z,101576.00
2018-09-30T04:57:12.565Z,101572.11
2018-09-30T04:59:39.515Z,101562.70
2018-09-30T05:02:06.509Z,101567.25
2018-09-30T05:04:33.496Z,101570.08
2018-09-30T05:07:00.489Z,101555.95
2018-09-30T05:09:27.449Z,101559.36
2018-09-30T05:11:54.430Z,101558.19
2018-09-30T05:14:21.390Z,101552.98
2018-09-30T05:16:48.509Z,101552.13
2018-09-30T05:19:15.505Z,101548.30
2018-09-30T05:21:42.460Z,101545.27
2018-09-30T05:24:09.411Z,101542.58
2018-09-30T05:26:36.374Z,101539.23
2018-09-30T05:29:03.345Z,101529.48
2018-09-30T05:31:30.325Z,101523.94
2018-09-30T05:33:57.293Z,101517.55
2018-09-30T05:36:24.256Z,101513.52
2018-09-30T05:38:51.252Z,101515.20
2018-09-30T05:41:18.230Z,101510.52
2018-09-30T05:43:45.168Z,101509.86
2018-09-30T05:46:12.139Z,101511.03
2018-09-30T05:48:39.110Z,101510.72
2018-09-30T05:51:06.093Z,101505.34
2018-09-30T05:53:33.067Z,101512.05
2018-09-30T05:56:00.042Z,101510.72
2018-09-30T05:58:27.012Z,101505.51
2018-09-30T06:00:53.981Z,101502.64
2018-09-30T06:03:20.938Z,101507.02
2018-09-30T06:05:47.967Z,101506.53
2018-09-30T06:08:14.931Z,101510.73
2018-09-30T06:10:41.914Z,101511.08
2018-09-30T06:13:08.879Z,101511.59
2018-09-30T06:15:35.840Z,101515.29
2018-09-30T06:18:02.807Z,101512.74
2018-09-30T06:20:29.777Z,101515.29
2018-09-30T06:22:56.753Z,101516.97
2018-09-30T06:25:23.754Z,101510.59
2018-09-30T06:27:50.735Z,101505.70
2018-09-30T06:30:17.694Z,101509.08
2018-09-30T06:32:44.666Z,101510.93
2018-09-30T06:35:11.648Z,101515.13
2018-09-30T06:37:38.612Z,101503.38
2018-09-30T06:40:05.623Z,101505.08
2018-09-30T06:42:32.580Z,101499.70
2018-09-30T06:44:59.534Z,101501.07
2018-09-30T06:47:26.493Z,101499.57
2018-09-30T06:49:53.455Z,101500.91
2018-09-30T06:52:20.413Z,101506.12
2018-09-30T06:54:47.366Z,101501.11
2018-09-30T06:57:14.316Z,101501.13
2018-09-30T06:59:41.286Z,101500.77
2018-09-30T07:02:08.256Z,101499.09
2018-09-30T07:04:35.217Z,101505.66
2018-09-30T07:07:02.190Z,101501.66
2018-09-30T07:09:29.133Z,101494.92
2018-09-30T07:11:56.080Z,101489.53
2018-09-30T07:14:23.073Z,101492.41
2018-09-30T07:16:50.052Z,101499.00
2018-09-30T07:19:17.018Z,101495.63
2018-09-30T07:21:43.990Z,101495.78
2018-09-30T07:24:10.958Z,101497.45
2018-09-30T07:26:37.914Z,101498.61
2018-09-30T07:29:04.881Z,101493.70
2018-09-30T07:31:31.939Z,101494.69
2018-09-30T07:33:58.933Z,101491.99
2018-09-30T07:36:25.905Z,101488.25
2018-09-30T07:38:52.872Z,101488.72
2018-09-30T07:41:19.840Z,101486.93
2018-09-30T07:43:46.783Z,101484.55
2018-09-30T07:46:13.785Z,101489.34
2018-09-30T07:48:40.737Z,101483.27
2018-09-30T07:51:07.733Z,101484.09
2018-09-30T07:53:34.714Z,101480.92
2018-09-30T07:56:01.695Z,101479.41
2018-09-30T07:58:28.690Z,101484.21
2018-09-30T08:00:55.718Z,101482.67
2018-09-30T08:03:22.702Z,101476.44
2018-09-30T08:05:49.685Z,101480.75
2018-09-30T08:08:16.726Z,101478.55
2018-09-30T08:10:43.705Z,101476.64
2018-09-30T08:13:10.687Z,101471.84
2018-09-30T08:15:37.642Z,101482.03
2018-09-30T08:18:04.729Z,101481.41
2018-09-30T08:20:31.700Z,101482.59
2018-09-30T08:22:58.714Z,101486.70
2018-09-30T08:25:25.738Z,101479.91
2018-09-30T08:27:52.784Z,101475.94
2018-09-30T08:30:19.738Z,101468.41
2018-09-30T08:32:46.709Z,101468.22
2018-09-30T08:35:13.713Z,101467.94
2018-09-30T08:37:46.365Z,101464.41
2018-09-30T08:40:17.582Z,101462.25
2018-09-30T08:42:44.568Z,101453.31
2018-09-30T08:45:11.535Z,101456.38
2018-09-30T08:47:38.544Z,101462.36
2018-09-30T08:50:05.548Z,101462.52
2018-09-30T08:52:32.524Z,101455.67
2018-09-30T08:54:59.485Z,101450.19
2018-09-30T08:57:26.457Z,101444.92
2018-09-30T08:59:53.409Z,101443.41
2018-09-30T09:02:20.388Z,101438.31
2018-09-30T09:04:47.408Z,101433.14
2018-09-30T09:07:14.399Z,101427.03
2018-09-30T09:09:41.389Z,101424.64
2018-09-30T09:12:08.322Z,101431.00
2018-09-30T09:14:35.288Z,101424.44
2018-09-30T09:17:02.274Z,101425.47
2018-09-30T09:19:29.285Z,101427.86
2018-09-30T09:21:56.250Z,101425.22
2018-09-30T09:24:23.217Z,101420.97
2018-09-30T09:26:50.172Z,101419.30
2018-09-30T09:29:17.137Z,101408.16
2018-09-30T09:31:44.171Z,101403.56
2018-09-30T09:34:11.123Z,101413.91
2018-09-30T09:36:38.061Z,101404.13
2018-09-30T09:39:07.899Z,101411.72
2018-09-30T09:41:35.231Z,101404.78
2018-09-30T09:44:02.260Z,101392.92
2018-09-30T09:46:29.230Z,101385.66
2018-09-30T09:48:56.183Z,101388.17
2018-09-30T09:51:23.113Z,101384.55
2018-09-30T09:53:50.062Z,101369.61
2018-09-30T09:56:17.006Z,101374.23
2018-09-30T09:58:43.991Z,101365.45
2018-09-30T10:01:10.969Z,101368.77
2018-09-30T10:03:37.967Z,101364.73
2018-09-30T10:06:04.933Z,101362.02
2018-09-30T10:08:31.922Z,101360.36
2018-09-30T10:10:58.928Z,101345.09
2018-09-30T10:13:25.879Z,101346.45
2018-09-30T10:15:52.837Z,101349.30
2018-09-30T10:18:19.809Z,101342.16
2018-09-30T10:20:46.745Z,101348.05
2018-09-30T10:23:13.709Z,101330.55
2018-09-30T10:25:40.645Z,101328.14
2018-09-30T10:28:07.613Z,101323.48
2018-09-30T10:30:34.593Z,101333.39
2018-09-30T10:33:01.546Z,101329.56
2018-09-30T10:35:28.501Z,101331.69
2018-09-30T10:37:55.448Z,101321.77
2018-09-30T10:40:22.410Z,101329.23
2018-09-30T10:42:49.366Z,101323.59
2018-09-30T10:45:16.329Z,101323.86
2018-09-30T10:47:43.334Z,101323.52
2018-09-30T10:50:10.292Z,101324.83
2018-09-30T10:52:37.229Z,101327.55
2018-09-30T10:55:04.548Z,101319.81
2018-09-30T10:57:31.498Z,101319.03
2018-09-30T10:59:58.461Z,101316.27
2018-09-30T11:02:25.561Z,101323.39
2018-09-30T11:04:52.523Z,101322.89
2018-09-30T11:07:19.490Z,101314.72
2018-09-30T11:09:46.551Z,101310.47
2018-09-30T11:12:13.468Z,101303.77
2018-09-30T11:14:40.429Z,101304.10
2018-09-30T11:17:07.393Z,101302.04
2018-09-30T11:19:34.373Z,101309.91
2018-09-30T11:22:01.353Z,101300.42
2018-09-30T11:24:28.311Z,101293.50
2018-09-30T11:26:55.441Z,101293.55
2018-09-30T11:29:22.410Z,101287.90
2018-09-30T11:31:49.411Z,101282.06
2018-09-30T11:34:16.381Z,101249.83
2018-09-30T11:36:43.344Z,101282.78
2018-09-30T11:39:11.345Z,101288.98
2018-09-30T11:41:38.381Z,101271.97
2018-09-30T11:44:05.362Z,101261.88
2018-09-30T11:46:33.380Z,101260.05
2018-09-30T11:49:00.353Z,101249.05
2018-09-30T11:51:27.538Z,101253.63
2018-09-30T11:53:54.486Z,101253.56
2018-09-30T11:56:21.575Z,101246.75
2018-09-30T11:58:48.784Z,101235.52
2018-09-30T12:01:15.858Z,101237.53
2018-09-30T12:03:42.927Z,101226.83
2018-09-30T12:06:09.992Z,101234.10
2018-09-30T12:08:37.056Z,101235.78
2018-09-30T12:11:04.641Z,101224.20
2018-09-30T12:13:31.893Z,101228.53
2018-09-30T12:15:59.311Z,101225.67
2018-09-30T12:18:26.560Z,101219.49
2018-09-30T12:20:53.660Z,101221.38
2018-09-30T12:23:20.839Z,101214.55
2018-09-30T12:25:48.308Z,101211.95
2018-09-30T12:28:16.155Z,101213.39
2018-09-30T12:30:44.154Z,101207.52
2018-09-30T12:33:11.788Z,101203.52
2018-09-30T12:35:38.765Z,101197.88
2018-09-30T12:38:05.718Z,101205.26
2018-09-30T12:40:32.684Z,101197.45
2018-09-30T12:42:59.636Z,101194.66
2018-09-30T12:45:26.606Z,101195.58
2018-09-30T12:47:53.565Z,101193.13
2018-09-30T12:50:20.545Z,101187.69
2018-09-30T12:52:47.541Z,101185.41
2018-09-30T12:55:14.500Z,101185.41
2018-09-30T12:57:41.493Z,101186.93
2018-09-30T13:00:09.248Z,101189.67
2018-09-30T13:02:36.288Z,101187.16
2018-09-30T13:05:03.314Z,101178.16
2018-09-30T13:07:30.550Z,101174.33
2018-09-30T13:09:57.566Z,101182.68
2018-09-30T13:12:24.620Z,101176.62
2018-09-30T13:14:51.761Z,101171.60
2018-09-30T13:17:18.947Z,101176.33
2018-09-30T13:19:46.052Z,101178.75
2018-09-30T13:22:13.283Z,101178.59
2018-09-30T13:24:40.285Z,101178.39
2018-09-30T13:27:07.573Z,101177.48
2018-09-30T13:29:34.681Z,101170.20
2018-09-30T13:32:01.788Z,101171.37
2018-09-30T13:34:28.781Z,101162.61
2018-09-30T13:36:55.937Z,101160.64
2018-09-30T13:39:23.055Z,101164.38
2018-09-30T13:41:50.149Z,101167.71
2018-09-30T13:44:17.187Z,101160.89
2018-09-30T13:46:44.166Z,101166.12
2018-09-30T13:49:11.265Z,101161.64
2018-09-30T13:51:38.269Z,101156.34
2018-09-30T13:54:05.577Z,101164.29
2018-09-30T13:56:39.495Z,101161.96
2018-09-30T13:59:06.539Z,101164.62
2018-09-30T14:01:33.453Z,101157.14
2018-09-30T14:04:00.451Z,101152.53
2018-09-30T14:06:27.503Z,101157.38
2018-09-30T14:08:54.548Z,101157.88
2018-09-30T14:11:21.569Z,101157.38
2018-09-30T14:13:48.556Z,101155.45
2018-09-30T14:16:15.569Z,101155.94
2018-09-30T14:18:42.508Z,101151.31
2018-09-30T14:21:09.461Z,101150.88
2018-09-30T14:23:36.778Z,101144.33
2018-09-30T14:26:03.890Z,101150.08
2018-09-30T14:28:31.084Z,101142.59
2018-09-30T14:30:58.140Z,101146.75
2018-09-30T14:33:25.270Z,101143.58
2018-09-30T14:35:52.359Z,101145.67
2018-09-30T14:38:19.478Z,101136.15
2018-09-30T14:40:46.517Z,101141.13
2018-09-30T14:43:13.623Z,101138.44
2018-09-30T14:45:40.558Z,101138.40
2018-09-30T14:48:07.655Z,101139.88
2018-09-30T14:50:34.770Z,101135.94
2018-09-30T14:53:01.896Z,101125.75
2018-09-30T14:55:29.042Z,101136.32
2018-09-30T14:57:57.098Z,101134.63
2018-09-30T15:00:24.189Z,101134.27
2018-09-30T15:02:51.331Z,101128.77
2018-09-30T15:05:19.576Z,101134.27
2018-09-30T15:07:46.754Z,101131.78
2018-09-30T15:10:15.088Z,101130.23
2018-09-30T15:12:44.540Z,101129.23
2018-09-30T15:15:11.630Z,101137.67
2018-09-30T15:17:38.813Z,101138.11
2018-09-30T15:20:05.777Z,101130.69
2018-09-30T15:22:32.867Z,101133.78
2018-09-30T15:25:00.223Z,101139.61
2018-09-30T15:27:27.284Z,101134.64
2018-09-30T15:29:54.347Z,101131.41
2018-09-30T15:32:21.397Z,101137.66
2018-09-30T15:34:48.433Z,101135.31
2018-09-30T15:37:15.472Z,101139.51
2018-09-30T15:39:42.476Z,101135.55
2018-09-30T15:42:09.488Z,101137.16
2018-09-30T15:44:36.440Z,101133.70
2018-09-30T15:47:03.405Z,101137.06
2018-09-30T15:49:30.349Z,101127.36
2018-09-30T15:51:57.400Z,101117.94
2018-09-30T15:54:24.341Z,101121.20
2018-09-30T15:56:51.393Z,101118.05
2018-09-30T15:59:18.346Z,101113.38
2018-09-30T16:01:45.314Z,101110.77
2018-09-30T16:04:12.261Z,101107.77
2018-09-30T16:06:39.217Z,101115.37
2018-09-30T16:09:06.880Z,101115.91
2018-09-30T16:11:33.832Z,101115.29
2018-09-30T16:14:01.613Z,101112.59
2018-09-30T16:16:28.548Z,101123.27
2018-09-30T16:18:55.509Z,101115.66
2018-09-30T16:21:22.497Z,101111.28
2018-09-30T16:23:49.684Z,101117.76
2018-09-30T16:26:17.989Z,101114.01
2018-09-30T16:28:45.433Z,101116.54
2018-09-30T16:31:12.404Z,101113.36
2018-09-30T16:33:39.381Z,101114.72
2018-09-30T16:36:06.370Z,101116.52
2018-09-30T16:38:33.326Z,101114.22
2018-09-30T16:41:00.296Z,101109.52
2018-09-30T16:43:27.278Z,101111.92
2018-09-30T16:45:54.232Z,101106.72
2018-09-30T16:48:21.182Z,101070.74
2018-09-30T16:50:48.142Z,101114.01
2018-09-30T16:53:15.102Z,101110.98
2018-09-30T16:55:42.084Z,101110.88
2018-09-30T16:58:09.045Z,101116.51
2018-09-30T17:00:36.105Z,101112.53
2018-09-30T17:03:03.057Z,101111.48
2018-09-30T17:05:30.009Z,101115.03
2018-09-30T17:07:57.009Z,101111.67
2018-09-30T17:10:23.966Z,101112.59
2018-09-30T17:12:50.908Z,101115.06
2018-09-30T17:15:17.850Z,101117.45
2018-09-30T17:17:44.794Z,101113.58
2018-09-30T17:20:11.729Z,101120.73
2018-09-30T17:22:38.672Z,101119.34
2018-09-30T17:25:05.687Z,101126.02
2018-09-30T17:27:33.427Z,101125.55
2018-09-30T17:30:00.392Z,101119.53
2018-09-30T17:32:27.333Z,101115.83
2018-09-30T17:34:54.293Z,101113.80
2018-09-30T17:37:21.265Z,101116.82
2018-09-30T17:39:48.191Z,101118.54
2018-09-30T17:42:15.128Z,101119.58
2018-09-30T17:44:42.070Z,101111.02
2018-09-30T17:47:09.007Z,101114.95
2018-09-30T17:49:35.949Z,101114.45
2018-09-30T17:52:02.907Z,101120.25
2018-09-30T17:54:29.838Z,101117.44
2018-09-30T17:56:57.611Z,101116.09
2018-09-30T17:59:24.889Z,101119.94
2018-09-30T18:01:51.811Z,101114.41
2018-09-30T18:04:18.769Z,101113.59
2018-09-30T18:06:45.710Z,101118.11
2018-09-30T18:09:12.661Z,101117.69
2018-09-30T18:11:39.598Z,101116.82
2018-09-30T18:14:06.592Z,101113.08
2018-09-30T18:16:33.573Z,101107.77
2018-09-30T18:19:00.530Z,101116.21
2018-09-30T18:21:27.509Z,101108.20
2018-09-30T18:23:54.467Z,101104.13
2018-09-30T18:26:21.425Z,101103.31
2018-09-30T18:28:48.768Z,101101.42
2018-09-30T18:31:16.466Z,101100.28
2018-09-30T18:33:43.442Z,101099.25
2018-09-30T18:36:17.531Z,101096.09
2018-09-30T18:38:44.661Z,101096.72
2018-09-30T18:41:11.625Z,101097.77
2018-09-30T18:43:39.063Z,101099.44
2018-09-30T18:46:06.130Z,101096.72
2018-09-30T18:48:33.134Z,101088.60
2018-09-30T18:51:00.167Z,101083.00
2018-09-30T18:53:27.692Z,101078.80
2018-09-30T18:55:55.404Z,101079.44
2018-09-30T18:58:24.547Z,101084.22
2018-09-30T19:00:51.536Z,101087.78
2018-09-30T19:03:18.507Z,101078.63
2018-09-30T19:05:46.680Z,101085.39
2018-09-30T19:08:14.335Z,101076.41
2018-09-30T19:10:42.110Z,101069.33
2018-09-30T19:13:09.064Z,101077.13
2018-09-30T19:15:36.677Z,101081.20
2018-09-30T19:18:03.983Z,101079.52
2018-09-30T19:20:30.942Z,101077.88
2018-09-30T19:22:58.053Z,101074.64
2018-09-30T19:25:25.628Z,101076.70
2018-09-30T19:27:52.779Z,101072.83
2018-09-30T19:30:19.738Z,101066.41
2018-09-30T19:32:46.836Z,101065.06
2018-09-30T19:35:13.827Z,101062.98
2018-09-30T19:37:40.749Z,101068.09
2018-09-30T19:40:07.709Z,101051.99
2018-09-30T19:42:34.648Z,101061.81
2018-09-30T19:45:01.638Z,101049.63
2018-09-30T19:47:29.080Z,101038.75
2018-09-30T19:49:56.035Z,101042.89
2018-09-30T19:52:23.003Z,101047.50
2018-09-30T19:54:49.972Z,101049.81
2018-09-30T19:57:17.030Z,101043.13
2018-09-30T19:59:44.078Z,101048.91
2018-09-30T20:02:11.073Z,101047.66
2018-09-30T20:04:38.626Z,101043.92
2018-09-30T20:07:06.242Z,101057.70
2018-09-30T20:09:33.342Z,101041.69
2018-09-30T20:12:00.266Z,101048.14
2018-09-30T20:14:27.383Z,101040.00
2018-09-30T20:16:54.793Z,101038.01
2018-09-30T20:19:21.778Z,101037.69
2018-09-30T20:21:48.991Z,101030.81
2018-09-30T20:24:15.954Z,101030.70
2018-09-30T20:26:43.138Z,101044.43
2018-09-30T20:29:10.165Z,101041.08
2018-09-30T20:31:44.075Z,101047.96
2018-09-30T20:34:11.022Z,101042.41
2018-09-30T20:36:37.975Z,101034.90
2018-09-30T20:39:05.815Z,101032.19
2018-09-30T20:41:33.875Z,101029.27
2018-09-30T20:44:00.961Z,101028.07
2018-09-30T20:46:27.992Z,101019.49
2018-09-30T20:48:54.954Z,101022.09
2018-09-30T20:51:21.955Z,101021.34
2018-09-30T20:53:48.901Z,101028.24
2018-09-30T20:56:15.871Z,101025.31
2018-09-30T20:58:43.035Z,101030.09
2018-09-30T21:01:10.024Z,101023.00
2018-09-30T21:03:37.227Z,101011.22
2018-09-30T21:06:19.192Z,101017.44
2018-09-30T21:08:46.125Z,101026.76
2018-09-30T21:11:13.100Z,101027.68
2018-09-30T21:13:41.705Z,101018.92
2018-09-30T21:16:08.764Z,101016.87
2018-09-30T21:18:35.724Z,101021.99
2018-09-30T21:21:02.655Z,101019.30
2018-09-30T21:23:29.594Z,101016.27
2018-09-30T21:25:56.763Z,101018.42
2018-09-30T21:28:23.955Z,101014.45
2018-09-30T21:30:51.484Z,101017.67
2018-09-30T21:33:18.436Z,101002.22
2018-09-30T21:35:45.869Z,101011.36
2018-09-30T21:38:12.813Z,101008.39
2018-09-30T21:40:39.790Z,101010.66
2018-09-30T21:43:06.738Z,101020.00
2018-09-30T21:45:33.696Z,101009.69
2018-09-30T21:48:00.669Z,101012.45
2018-09-30T21:50:27.629Z,101011.64
2018-09-30T21:52:54.593Z,101008.50
2018-09-30T21:55:21.561Z,101006.76
2018-09-30T21:57:48.562Z,101008.00
2018-09-30T22:00:20.225Z,100996.16
2018-09-30T22:02:47.286Z,100998.65
2018-09-30T22:05:14.253Z,100995.23
2018-09-30T22:07:41.223Z,101001.50
2018-09-30T22:10:08.197Z,100998.80
2018-09-30T22:12:35.182Z,101005.84
2018-09-30T22:15:02.149Z,101002.06
2018-09-30T22:17:29.120Z,101000.16
2018-09-30T22:19:56.099Z,100994.12
2018-09-30T22:22:23.063Z,101000.00
2018-09-30T22:24:50.105Z,100991.41
2018-09-30T22:27:17.089Z,101001.64
2018-09-30T22:29:44.060Z,100987.95
2018-09-30T22:32:11.041Z,100992.97
2018-09-30T22:34:38.033Z,100993.47
2018-09-30T22:37:04.990Z,100985.80
2018-09-30T22:39:31.961Z,100989.85
2018-09-30T22:41:58.924Z,100993.05
2018-09-30T22:44:32.753Z,101012.82
2018-09-30T22:46:59.714Z,101010.50
2018-09-30T22:49:26.673Z,100995.38
2018-09-30T22:51:54.466Z,100993.64
2018-09-30T22:54:21.425Z,100987.74
2018-09-30T22:56:48.411Z,100981.92
2018-09-30T22:59:15.360Z,100980.89
2018-09-30T23:01:42.311Z,100973.91
2018-09-30T23:04:09.248Z,100967.92
2018-09-30T23:06:36.230Z,100970.58
2018-09-30T23:09:04.642Z,100962.35
2018-09-30T23:11:31.593Z,100959.66
2018-09-30T23:13:58.538Z,100956.03
2018-09-30T23:16:25.473Z,100945.48
2018-09-30T23:18:52.436Z,100940.80
2018-09-30T23:21:19.394Z,100940.53
2018-09-30T23:23:46.346Z,100933.14
2018-09-30T23:26:13.296Z,100929.19
2018-09-30T23:28:40.256Z,100924.98
2018-09-30T23:31:07.206Z,100923.25
2018-09-30T23:33:34.183Z,100923.95
2018-09-30T23:36:01.176Z,100920.11
2018-09-30T23:38:28.141Z,100928.10
2018-09-30T23:40:55.097Z,100934.14
2018-09-30T23:43:22.065Z,100939.66
2018-09-30T23:45:49.005Z,100948.31
2018-09-30T23:48:15.970Z,100943.23
2018-09-30T23:50:42.932Z,100943.77
2018-09-30T23:53:09.893Z,100945.00
2018-09-30T23:55:36.845Z,100949.44
2018-09-30T23:58:10.292Z,100947.94
